Time;durP1;ratioP1;P1;durP2;ratioP2;P2;SDS_P1;SDS_P2;PMS_P1;PMS_P2;Temp;Humidity;BMP_temperature;BMP_pressure;BME280_temperature;BME280_humidity;BME280_pressure;Samples;Min_cycle;Max_cycle;Signal;HPM_P1;HPM_P2
2022/03/08 00:01:49;;;;;;;13.93;7.05;;;;;;;;;;6242530;28;20761;-78
2022/03/08 00:04:51;;;;;;;11.80;6.88;;;;;;;;;;6242521;28;20041;-79
2022/03/08 00:07:53;;;;;;;13.95;7.10;;;;;;;;;;6220171;28;20030;-82
2022/03/08 00:10:56;;;;;;;16.00;7.60;;;;;;;;;;6217352;28;20042;-79
2022/03/08 00:13:58;;;;;;;10.25;5.57;;;;;;;;;;6216790;28;20136;-80
2022/03/08 00:17:00;;;;;;;13.38;6.00;;;;;;;;;;6216706;28;20088;-78
2022/03/08 00:20:05;;;;;;;12.23;5.78;;;;;;;;;;6218305;28;20061;-81
2022/03/08 00:23:06;;;;;;;10.48;5.90;;;;;;;;;;6215898;28;20078;-81
2022/03/08 00:26:08;;;;;;;11.52;5.90;;;;;;;;;;6214385;28;20072;-79
2022/03/08 00:29:10;;;;;;;11.85;5.82;;;;;;;;;;6217600;28;20494;-80
2022/03/08 00:32:11;;;;;;;10.43;5.45;;;;;;;;;;6249212;28;20076;-80
2022/03/08 00:35:14;;;;;;;13.57;6.72;;;;;;;;;;6233161;28;20141;-83
2022/03/08 00:38:16;;;;;;;13.20;5.75;;;;;;;;;;6217328;28;20050;-81
2022/03/08 00:41:17;;;;;;;12.50;5.95;;;;;;;;;;6217162;28;20042;-83
2022/03/08 00:44:19;;;;;;;9.35;5.43;;;;;;;;;;6219437;28;20077;-79
2022/03/08 00:47:22;;;;;;;11.45;5.70;;;;;;;;;;6250360;28;20049;-80
2022/03/08 00:50:26;;;;;;;12.07;5.70;;;;;;;;;;6234663;28;20144;-83
2022/03/08 00:53:27;;;;;;;10.18;5.55;;;;;;;;;;6227516;28;20050;-79
2022/03/08 00:56:29;;;;;;;9.55;4.90;;;;;;;;;;6241908;28;20803;-80
2022/03/08 00:59:31;;;;;;;11.23;5.50;;;;;;;;;;6216115;28;20046;-81
2022/03/08 01:02:33;;;;;;;10.48;5.95;;;;;;;;;;6215339;28;20119;-80
2022/03/08 01:05:35;;;;;;;12.20;6.68;;;;;;;;;;6224429;28;20046;-80
2022/03/08 01:08:37;;;;;;;13.43;6.70;;;;;;;;;;6243040;28;20081;-78
2022/03/08 01:11:39;;;;;;;12.43;6.43;;;;;;;;;;6239116;28;20511;-79
2022/03/08 01:14:41;;;;;;;12.43;6.28;;;;;;;;;;6216638;28;20038;-82
2022/03/08 01:17:43;;;;;;;11.55;5.68;;;;;;;;;;6219319;28;20061;-78
2022/03/08 01:20:45;;;;;;;9.15;5.68;;;;;;;;;;6225437;28;20179;-78
2022/03/08 01:23:47;;;;;;;9.75;5.53;;;;;;;;;;6242586;28;20056;-81
2022/03/08 01:26:48;;;;;;;11.82;6.30;;;;;;;;;;6239295;28;20126;-82
2022/03/08 01:29:51;;;;;;;13.17;6.37;;;;;;;;;;6240188;28;20056;-82
2022/03/08 01:32:53;;;;;;;15.07;6.03;;;;;;;;;;6242739;28;20049;-79
2022/03/08 01:35:55;;;;;;;10.63;6.28;;;;;;;;;;6234906;28;20569;-82
2022/03/08 01:38:58;;;;;;;12.70;5.78;;;;;;;;;;6219627;28;20041;-79
2022/03/08 01:42:07;;;;;;;12.60;6.15;;;;;;;;;;6219662;28;20397;-82
2022/03/08 01:45:09;;;;;;;12.43;6.25;;;;;;;;;;6221228;28;20042;-78
2022/03/08 01:48:10;;;;;;;11.25;5.38;;;;;;;;;;6217696;28;20096;-78
2022/03/08 01:51:13;;;;;;;10.05;5.75;;;;;;;;;;6250015;28;20054;-82
2022/03/08 01:54:15;;;;;;;12.60;6.32;;;;;;;;;;6218484;28;20054;-80
2022/03/08 01:57:19;;;;;;;10.32;5.47;;;;;;;;;;6225128;28;20152;-81
2022/03/08 02:00:24;;;;;;;9.77;5.43;;;;;;;;;;6241413;28;20455;-80
2022/03/08 02:03:26;;;;;;;12.52;5.80;;;;;;;;;;6235632;28;20073;-84
2022/03/08 02:06:28;;;;;;;15.20;6.25;;;;;;;;;;6232509;28;20045;-84
2022/03/08 02:09:30;;;;;;;12.10;6.38;;;;;;;;;;6241857;28;20057;-81
2022/03/08 02:12:31;;;;;;;12.18;5.53;;;;;;;;;;6226809;28;20492;-81
2022/03/08 02:15:33;;;;;;;11.73;5.82;;;;;;;;;;6217730;28;20550;-83
2022/03/08 02:18:35;;;;;;;14.73;6.10;;;;;;;;;;6215711;28;20523;-82
2022/03/08 02:21:37;;;;;;;10.38;5.20;;;;;;;;;;6216892;28;20049;-81
2022/03/08 02:24:38;;;;;;;11.38;6.25;;;;;;;;;;6212790;28;20046;-80
2022/03/08 02:27:42;;;;;;;13.32;6.63;;;;;;;;;;6218026;28;20061;-84
2022/03/08 02:30:43;;;;;;;13.85;6.15;;;;;;;;;;6217104;28;20045;-81
2022/03/08 02:33:45;;;;;;;13.65;6.10;;;;;;;;;;6215842;28;20046;-81
2022/03/08 02:37:07;;;;;;;17.33;6.72;;;;;;;;;;6216779;28;20042;-82
2022/03/08 02:40:11;;;;;;;13.57;5.95;;;;;;;;;;6236732;28;20511;-80
2022/03/08 02:43:13;;;;;;;13.95;6.35;;;;;;;;;;6224159;28;20120;-82
2022/03/08 02:46:15;;;;;;;10.88;6.00;;;;;;;;;;6218453;28;20121;-82
2022/03/08 02:49:17;;;;;;;10.98;5.93;;;;;;;;;;6242489;28;20124;-84
2022/03/08 02:52:18;;;;;;;13.85;5.95;;;;;;;;;;6227736;28;20101;-82
2022/03/08 02:55:23;;;;;;;15.13;6.05;;;;;;;;;;6220887;28;20410;-83
2022/03/08 02:58:24;;;;;;;11.95;6.03;;;;;;;;;;6220571;28;20038;-81
2022/03/08 03:01:26;;;;;;;14.00;7.10;;;;;;;;;;6219516;28;20438;-81
2022/03/08 03:04:28;;;;;;;15.60;6.43;;;;;;;;;;6219675;28;20056;-82
2022/03/08 03:07:31;;;;;;;13.43;6.68;;;;;;;;;;6220143;28;20076;-83
2022/03/08 03:10:33;;;;;;;;;;;;;;;;;;6219323;28;20172;-81
2022/03/08 03:13:35;;;;;;;13.05;5.97;;;;;;;;;;6225030;28;20014;-82
2022/03/08 03:16:37;;;;;;;14.45;6.60;;;;;;;;;;6236984;28;20529;-83
2022/03/08 03:19:39;;;;;;;13.50;7.03;;;;;;;;;;6238514;28;20579;-81
2022/03/08 03:22:41;;;;;;;12.82;6.88;;;;;;;;;;6220352;28;20140;-84
2022/03/08 03:25:43;;;;;;;12.05;6.88;;;;;;;;;;6218831;28;20125;-82
2022/03/08 03:28:44;;;;;;;12.18;6.10;;;;;;;;;;6219737;28;20046;-81
2022/03/08 03:31:46;;;;;;;13.32;6.53;;;;;;;;;;6219169;28;20105;-81
2022/03/08 03:34:48;;;;;;;16.38;6.78;;;;;;;;;;6218431;28;20526;-83
2022/03/08 03:37:49;;;;;;;12.18;6.15;;;;;;;;;;6219053;28;20177;-80
2022/03/08 03:40:51;;;;;;;12.75;6.60;;;;;;;;;;6218402;28;20053;-81
2022/03/08 03:43:53;;;;;;;14.55;6.30;;;;;;;;;;6216514;28;20137;-81
2022/03/08 03:46:54;;;;;;;16.23;6.63;;;;;;;;;;6218211;28;20054;-81
2022/03/08 03:49:56;;;;;;;11.82;5.72;;;;;;;;;;6247799;28;20133;-81
2022/03/08 03:52:58;;;;;;;10.23;5.22;;;;;;;;;;6217778;28;20125;-83
2022/03/08 03:55:59;;;;;;;11.00;5.95;;;;;;;;;;6218326;28;20058;-80
2022/03/08 03:59:02;;;;;;;10.83;6.27;;;;;;;;;;6217868;28;20057;-81
2022/03/08 04:02:04;;;;;;;13.50;6.00;;;;;;;;;;6215769;28;20930;-80
2022/03/08 04:05:07;;;;;;;12.27;5.68;;;;;;;;;;6215615;28;20454;-82
2022/03/08 04:08:08;;;;;;;12.43;6.05;;;;;;;;;;6240901;28;20056;-82
2022/03/08 04:11:12;;;;;;;11.25;5.57;;;;;;;;;;6240870;28;20034;-80
2022/03/08 04:14:15;;;;;;;11.95;6.03;;;;;;;;;;6216068;28;20159;-80
2022/03/08 04:17:16;;;;;;;14.73;5.95;;;;;;;;;;6217206;28;20403;-82
2022/03/08 04:20:18;;;;;;;14.75;5.80;;;;;;;;;;6231199;28;20148;-81
2022/03/08 04:23:20;;;;;;;13.98;7.30;;;;;;;;;;6241208;28;20057;-84
2022/03/08 04:26:22;;;;;;;14.23;6.63;;;;;;;;;;6233670;28;20038;-80
2022/03/08 04:29:24;;;;;;;12.65;6.10;;;;;;;;;;6228253;28;20048;-79
2022/03/08 04:32:25;;;;;;;15.32;7.20;;;;;;;;;;6217416;28;20516;-80
2022/03/08 04:35:27;;;;;;;12.55;6.30;;;;;;;;;;6205274;28;20457;-82
2022/03/08 04:38:29;;;;;;;14.60;6.55;;;;;;;;;;6234975;28;20138;-80
2022/03/08 04:41:31;;;;;;;15.70;6.13;;;;;;;;;;6227086;28;20053;-80
2022/03/08 04:44:32;;;;;;;14.25;6.97;;;;;;;;;;6242524;28;20041;-80
2022/03/08 04:47:35;;;;;;;20.40;7.50;;;;;;;;;;6241047;28;20045;-82
2022/03/08 04:50:37;;;;;;;19.63;8.02;;;;;;;;;;6229668;28;20052;-82
2022/03/08 04:53:39;;;;;;;14.23;6.90;;;;;;;;;;6217963;28;20049;-81
2022/03/08 04:56:41;;;;;;;15.45;7.38;;;;;;;;;;6217311;28;20096;-81
2022/03/08 04:59:42;;;;;;;14.75;7.00;;;;;;;;;;6242372;28;20180;-82
2022/03/08 05:02:45;;;;;;;15.77;7.60;;;;;;;;;;6241153;28;20048;-81
2022/03/08 05:05:47;;;;;;;17.50;6.57;;;;;;;;;;6268168;28;20052;-82
2022/03/08 05:08:49;;;;;;;18.63;7.75;;;;;;;;;;6217264;28;20045;-83
2022/03/08 05:11:51;;;;;;;15.20;7.38;;;;;;;;;;6221580;28;20057;-80
2022/03/08 05:14:52;;;;;;;15.82;7.25;;;;;;;;;;6240874;28;20517;-82
2022/03/08 05:17:54;;;;;;;12.13;6.05;;;;;;;;;;6239012;28;20071;-83
2022/03/08 05:20:55;;;;;;;11.98;5.95;;;;;;;;;;6226275;28;20109;-80
2022/03/08 05:23:57;;;;;;;17.45;6.72;;;;;;;;;;6214591;28;20940;-81
2022/03/08 05:26:59;;;;;;;18.05;8.15;;;;;;;;;;6215701;28;20061;-81
2022/03/08 05:30:00;;;;;;;17.23;7.78;;;;;;;;;;6213437;28;20196;-85
2022/03/08 05:33:02;;;;;;;20.95;7.53;;;;;;;;;;6246442;28;20089;-83
2022/03/08 05:36:04;;;;;;;15.50;7.63;;;;;;;;;;6216888;28;20129;-81
2022/03/08 05:39:05;;;;;;;14.75;7.20;;;;;;;;;;6212605;28;20041;-81
2022/03/08 05:42:07;;;;;;;15.35;6.90;;;;;;;;;;6213809;28;20125;-84
2022/03/08 05:45:11;;;;;;;13.60;6.07;;;;;;;;;;6214283;28;20120;-81
2022/03/08 05:48:12;;;;;;;12.77;6.32;;;;;;;;;;6214841;28;20411;-81
2022/03/08 05:51:15;;;;;;;17.02;8.05;;;;;;;;;;6235874;28;20118;-81
2022/03/08 05:54:17;;;;;;;38.88;14.23;;;;;;;;;;6235986;28;20046;-81
2022/03/08 05:57:18;;;;;;;26.52;13.23;;;;;;;;;;6228676;28;20124;-83
2022/03/08 06:00:20;;;;;;;29.73;9.63;;;;;;;;;;6213446;28;20049;-81
2022/03/08 06:03:22;;;;;;;15.35;6.78;;;;;;;;;;6215054;28;20046;-79
2022/03/08 06:06:24;;;;;;;17.83;7.10;;;;;;;;;;6228691;28;20248;-80
2022/03/08 06:09:26;;;;;;;15.48;7.95;;;;;;;;;;6237408;28;20053;-79
2022/03/08 06:12:27;;;;;;;17.60;9.45;;;;;;;;;;6226918;28;20099;-83
2022/03/08 06:15:29;;;;;;;21.25;10.15;;;;;;;;;;6214818;28;20046;-85
2022/03/08 06:18:31;;;;;;;20.15;9.35;;;;;;;;;;6216035;28;20444;-80
2022/03/08 06:21:32;;;;;;;19.65;11.60;;;;;;;;;;6212324;28;20120;-84
2022/03/08 06:24:34;;;;;;;16.38;8.18;;;;;;;;;;6199381;28;20123;-84
2022/03/08 06:27:35;;;;;;;18.67;7.40;;;;;;;;;;6227432;28;20401;-82
2022/03/08 06:30:37;;;;;;;16.90;8.05;;;;;;;;;;6244040;28;20124;-83
2022/03/08 06:33:39;;;;;;;21.13;8.60;;;;;;;;;;6243135;28;20048;-82
2022/03/08 06:36:41;;;;;;;23.63;8.63;;;;;;;;;;6226172;28;20173;-84
2022/03/08 06:39:43;;;;;;;18.38;7.85;;;;;;;;;;6219668;28;20515;-83
2022/03/08 06:42:44;;;;;;;44.38;15.10;;;;;;;;;;6233634;28;20048;-81
2022/03/08 06:45:46;;;;;;;19.15;9.35;;;;;;;;;;6243805;28;20061;-81
2022/03/08 06:48:48;;;;;;;21.63;11.77;;;;;;;;;;6244265;28;20044;-80
2022/03/08 06:51:49;;;;;;;19.13;9.70;;;;;;;;;;6226159;28;20117;-82
2022/03/08 06:54:52;;;;;;;20.63;9.60;;;;;;;;;;6219619;28;20049;-82
2022/03/08 06:57:54;;;;;;;22.83;10.63;;;;;;;;;;6235079;28;20065;-84
2022/03/08 07:00:55;;;;;;;24.38;11.20;;;;;;;;;;6249041;28;20045;-81
2022/03/08 07:03:58;;;;;;;24.02;10.68;;;;;;;;;;6247874;28;20123;-82
2022/03/08 07:06:59;;;;;;;23.48;10.73;;;;;;;;;;6229955;28;20396;-81
2022/03/08 07:10:01;;;;;;;21.20;9.88;;;;;;;;;;6219753;28;20180;-80
2022/03/08 07:13:03;;;;;;;23.15;11.15;;;;;;;;;;6241963;28;20542;-83
2022/03/08 07:16:05;;;;;;;22.48;9.43;;;;;;;;;;6250299;28;20133;-81
2022/03/08 07:19:07;;;;;;;22.65;10.48;;;;;;;;;;6247280;28;20124;-81
2022/03/08 07:22:08;;;;;;;19.17;9.55;;;;;;;;;;6223353;28;20066;-82
2022/03/08 07:25:11;;;;;;;18.60;8.90;;;;;;;;;;6223683;28;20121;-81
2022/03/08 07:28:13;;;;;;;18.77;9.30;;;;;;;;;;6225293;28;20485;-79
2022/03/08 07:31:33;;;;;;;21.58;10.07;;;;;;;;;;6221961;28;20046;-80
2022/03/08 07:34:35;;;;;;;23.25;11.13;;;;;;;;;;6222485;28;20053;-83
2022/03/08 07:37:37;;;;;;;16.98;9.23;;;;;;;;;;6240449;28;20145;-83
2022/03/08 07:40:39;;;;;;;21.57;10.10;;;;;;;;;;6252285;28;20145;-81
2022/03/08 07:43:41;;;;;;;20.80;9.73;;;;;;;;;;6245269;28;20061;-83
2022/03/08 07:46:42;;;;;;;21.83;9.93;;;;;;;;;;6254376;28;20053;-80
2022/03/08 07:49:44;;;;;;;18.10;8.93;;;;;;;;;;6248310;28;20056;-85
2022/03/08 07:52:45;;;;;;;21.13;9.73;;;;;;;;;;6244625;28;20065;-80
2022/03/08 07:55:47;;;;;;;18.35;9.35;;;;;;;;;;6253409;28;20121;-81
2022/03/08 07:58:56;;;;;;;15.80;9.27;;;;;;;;;;6243864;28;20056;-80
2022/03/08 08:01:57;;;;;;;18.30;9.27;;;;;;;;;;6233404;28;20491;-81
2022/03/08 08:04:59;;;;;;;15.35;8.38;;;;;;;;;;6223944;28;20127;-79
2022/03/08 08:08:02;;;;;;;17.23;8.75;;;;;;;;;;6237044;28;20049;-80
2022/03/08 08:11:04;;;;;;;19.85;9.05;;;;;;;;;;6231170;28;20072;-81
2022/03/08 08:14:06;;;;;;;21.40;9.68;;;;;;;;;;6217011;28;20101;-82
2022/03/08 08:17:07;;;;;;;16.70;8.57;;;;;;;;;;6217295;28;20050;-81
2022/03/08 08:20:10;;;;;;;17.48;8.55;;;;;;;;;;6218324;28;20041;-78
2022/03/08 08:23:11;;;;;;;17.33;9.02;;;;;;;;;;6217267;28;20069;-82
2022/03/08 08:26:13;;;;;;;16.33;8.98;;;;;;;;;;6220340;28;20129;-82
2022/03/08 08:29:15;;;;;;;18.20;8.85;;;;;;;;;;6218675;28;20046;-79
2022/03/08 08:32:16;;;;;;;18.02;8.45;;;;;;;;;;6216454;28;20177;-79
2022/03/08 08:35:18;;;;;;;16.23;8.65;;;;;;;;;;6242038;28;20087;-79
2022/03/08 08:38:20;;;;;;;17.48;7.97;;;;;;;;;;6221457;28;20177;-83
2022/03/08 08:41:22;;;;;;;14.05;8.20;;;;;;;;;;6235585;28;20267;-80
2022/03/08 08:44:26;;;;;;;14.75;8.20;;;;;;;;;;6236686;28;20124;-77
2022/03/08 08:47:28;;;;;;;16.42;8.18;;;;;;;;;;6225205;28;20668;-81
2022/03/08 08:50:30;;;;;;;14.75;8.27;;;;;;;;;;6231017;28;20138;-78
2022/03/08 08:53:31;;;;;;;21.13;10.07;;;;;;;;;;6216113;28;20048;-80
2022/03/08 08:56:35;;;;;;;14.02;7.38;;;;;;;;;;6214698;28;20084;-80
2022/03/08 08:59:37;;;;;;;14.45;7.65;;;;;;;;;;6237690;28;20417;-79
2022/03/08 09:02:42;;;;;;;14.32;7.15;;;;;;;;;;6224192;28;20042;-80
2022/03/08 09:05:45;;;;;;;16.40;7.40;;;;;;;;;;6225473;28;20397;-84
2022/03/08 09:08:46;;;;;;;13.75;7.00;;;;;;;;;;6216345;28;20049;-81
2022/03/08 09:11:48;;;;;;;11.23;6.38;;;;;;;;;;6216726;28;20070;-81
2022/03/08 09:14:50;;;;;;;12.88;7.13;;;;;;;;;;6219413;28;20127;-78
2022/03/08 09:17:51;;;;;;;12.52;6.72;;;;;;;;;;6240872;28;20119;-79
2022/03/08 09:20:53;;;;;;;13.38;7.10;;;;;;;;;;6234935;28;20053;-78
2022/03/08 09:23:54;;;;;;;11.50;6.70;;;;;;;;;;6237134;28;20124;-79
2022/03/08 09:26:56;;;;;;;11.90;6.80;;;;;;;;;;6247571;28;20176;-79
2022/03/08 09:29:58;;;;;;;8.73;5.40;;;;;;;;;;6214294;28;20121;-79
2022/03/08 09:33:01;;;;;;;9.85;5.65;;;;;;;;;;6216056;28;20069;-80
2022/03/08 09:36:03;;;;;;;9.20;4.63;;;;;;;;;;6216340;28;20057;-80
2022/03/08 09:39:05;;;;;;;12.07;5.43;;;;;;;;;;6215069;28;20124;-80
2022/03/08 09:42:07;;;;;;;8.45;4.53;;;;;;;;;;6219393;28;20092;-79
2022/03/08 09:45:10;;;;;;;12.55;6.90;;;;;;;;;;6216455;28;20085;-79
2022/03/08 09:48:12;;;;;;;8.73;4.93;;;;;;;;;;6210991;28;20488;-78
2022/03/08 09:51:15;;;;;;;6.68;3.70;;;;;;;;;;6211473;28;20064;-78
2022/03/08 09:54:17;;;;;;;7.00;4.35;;;;;;;;;;6211094;28;20249;-79
2022/03/08 09:57:22;;;;;;;9.05;4.65;;;;;;;;;;6218590;28;20088;-81
2022/03/08 10:00:24;;;;;;;9.88;4.60;;;;;;;;;;6237990;28;20041;-80
2022/03/08 10:03:38;;;;;;;7.35;4.38;;;;;;;;;;6238962;28;20175;-79
2022/03/08 10:06:42;;;;;;;10.00;4.78;;;;;;;;;;6234651;28;20249;-81
2022/03/08 10:09:56;;;;;;;11.88;5.60;;;;;;;;;;6213617;28;20115;-82
2022/03/08 10:12:59;;;;;;;10.65;5.55;;;;;;;;;;6204200;28;20095;-80
2022/03/08 10:16:14;;;;;;;10.05;5.45;;;;;;;;;;6215637;28;20462;-83
2022/03/08 10:19:16;;;;;;;8.60;5.57;;;;;;;;;;6204738;28;20057;-81
2022/03/08 10:22:32;;;;;;;11.80;5.22;;;;;;;;;;6212155;28;20152;-79
2022/03/08 10:25:34;;;;;;;10.77;5.20;;;;;;;;;;6213096;28;20052;-80
2022/03/08 10:28:51;;;;;;;8.40;5.03;;;;;;;;;;6233369;28;20041;-80
2022/03/08 10:32:19;;;;;;;11.98;5.80;;;;;;;;;;6244310;28;20053;-83
2022/03/08 10:35:23;;;;;;;11.00;5.72;;;;;;;;;;6243663;28;20045;-79
2022/03/08 10:38:25;;;;;;;6.85;4.18;;;;;;;;;;6214156;28;20123;-81
2022/03/08 10:41:26;;;;;;;9.43;5.35;;;;;;;;;;6213195;28;20127;-80
2022/03/08 10:44:38;;;;;;;8.77;4.90;;;;;;;;;;6218428;28;20063;-81
2022/03/08 10:47:43;;;;;;;7.18;5.10;;;;;;;;;;6212048;28;20642;-82
2022/03/08 10:50:49;;;;;;;9.13;5.63;;;;;;;;;;6219489;28;20064;-82
2022/03/08 10:53:52;;;;;;;8.65;4.93;;;;;;;;;;6232403;28;20050;-83
2022/03/08 10:56:55;;;;;;;;;;;;;;;;;;6218463;28;20085;-79
2022/03/08 10:59:56;;;;;;;8.27;4.57;;;;;;;;;;6216261;28;19921;-83
2022/03/08 11:03:22;;;;;;;8.32;5.07;;;;;;;;;;6220234;28;20057;-80
2022/03/08 11:06:25;;;;;;;8.48;4.57;;;;;;;;;;6221156;28;20073;-82
2022/03/08 11:09:27;;;;;;;7.17;4.20;;;;;;;;;;6222522;28;20061;-78
2022/03/08 11:12:29;;;;;;;6.40;4.45;;;;;;;;;;6233196;28;20046;-78
2022/03/08 11:15:33;;;;;;;7.15;4.35;;;;;;;;;;6244102;28;20142;-77
2022/03/08 11:18:36;;;;;;;7.55;4.35;;;;;;;;;;6248491;28;20155;-77
2022/03/08 11:21:39;;;;;;;6.88;4.32;;;;;;;;;;6245933;28;20115;-75
2022/03/08 11:24:41;;;;;;;9.70;5.20;;;;;;;;;;6213053;28;20054;-76
2022/03/08 11:27:46;;;;;;;7.93;4.80;;;;;;;;;;6219313;28;20144;-77
2022/03/08 11:30:54;;;;;;;7.32;4.13;;;;;;;;;;6220465;28;20136;-76
2022/03/08 11:34:01;;;;;;;7.40;4.45;;;;;;;;;;6224154;28;20527;-78
2022/03/08 11:37:12;;;;;;;8.43;4.60;;;;;;;;;;6222897;28;20045;-77
2022/03/08 11:40:17;;;;;;;9.98;4.63;;;;;;;;;;6257405;28;20546;-80
2022/03/08 11:43:20;;;;;;;7.45;4.20;;;;;;;;;;6219704;28;20478;-79
2022/03/08 11:46:22;;;;;;;;;;;;;;;;;;6227583;28;20080;-76
2022/03/08 11:49:54;;;;;;;9.68;4.55;;;;;;;;;;6250389;28;20378;-79
2022/03/08 11:56:15;;;;;;;10.40;4.60;;;;;;;;;;6222826;28;20124;-77
2022/03/08 11:59:17;;;;;;;7.75;4.82;;;;;;;;;;6220211;28;20123;-79
2022/03/08 12:02:20;;;;;;;8.27;4.82;;;;;;;;;;6217873;28;20038;-77
2022/03/08 12:05:37;;;;;;;8.63;4.90;;;;;;;;;;6221829;28;20753;-76
2022/03/08 12:08:41;;;;;;;9.60;4.63;;;;;;;;;;6221386;28;20121;-77
2022/03/08 12:11:43;;;;;;;9.68;5.10;;;;;;;;;;6221076;28;20057;-78
2022/03/08 12:15:03;;;;;;;8.38;4.85;;;;;;;;;;6219906;28;20050;-78
2022/03/08 12:18:17;;;;;;;7.97;4.82;;;;;;;;;;6220621;28;20126;-77
2022/03/08 12:21:30;;;;;;;11.45;5.72;;;;;;;;;;6221368;28;20045;-78
2022/03/08 12:24:40;;;;;;;8.10;5.30;;;;;;;;;;6219760;28;20128;-77
2022/03/08 12:27:47;;;;;;;8.82;4.43;;;;;;;;;;6218428;28;20115;-78
2022/03/08 12:31:05;;;;;;;11.20;5.35;;;;;;;;;;6220840;28;20093;-77
2022/03/08 12:34:42;;;;;;;10.18;5.15;;;;;;;;;;6222738;28;20093;-78
2022/03/08 12:38:04;;;;;;;10.57;5.68;;;;;;;;;;6223264;28;20501;-78
2022/03/08 12:41:06;;;;;;;9.23;5.35;;;;;;;;;;6222752;28;20057;-76
2022/03/08 12:44:07;;;;;;;9.43;5.38;;;;;;;;;;6220412;28;20057;-78
2022/03/08 12:47:09;;;;;;;10.25;5.50;;;;;;;;;;6219351;28;20499;-77
2022/03/08 12:50:33;;;;;;;9.85;5.47;;;;;;;;;;6251133;28;20046;-77
2022/03/08 12:53:35;;;;;;;10.18;5.95;;;;;;;;;;6220264;28;20411;-78
2022/03/08 12:56:38;;;;;;;8.13;5.13;;;;;;;;;;6220129;28;20049;-79
2022/03/08 12:59:52;;;;;;;12.77;6.80;;;;;;;;;;6223367;28;20052;-76
2022/03/08 13:02:53;;;;;;;;;;;;;;;;;;6216668;28;20125;-77
2022/03/08 13:05:57;;;;;;;11.57;6.30;;;;;;;;;;6217937;28;19928;-77
2022/03/08 13:09:04;;;;;;;9.40;5.20;;;;;;;;;;6218085;28;20042;-77
2022/03/08 13:12:28;;;;;;;8.20;5.30;;;;;;;;;;6220645;28;20053;-76
2022/03/08 13:15:30;;;;;;;;;;;;;;;;;;6235962;28;20128;-77
2022/03/08 13:18:36;;;;;;;9.40;5.55;;;;;;;;;;6217363;28;20568;-76
2022/03/08 13:21:39;;;;;;;7.82;4.63;;;;;;;;;;6221485;28;20501;-78
2022/03/08 13:24:40;;;;;;;7.50;4.78;;;;;;;;;;6224409;28;20104;-78
2022/03/08 13:27:51;;;;;;;8.82;5.10;;;;;;;;;;6222507;28;20045;-77
2022/03/08 13:30:58;;;;;;;7.50;4.95;;;;;;;;;;6218687;28;20101;-78
2022/03/08 13:34:00;;;;;;;8.52;5.28;;;;;;;;;;6213210;28;20058;-76
2022/03/08 13:37:03;;;;;;;7.38;4.85;;;;;;;;;;6201310;28;20042;-77
2022/03/08 13:40:05;;;;;;;6.85;4.97;;;;;;;;;;6194793;28;20065;-78
2022/03/08 13:43:09;;;;;;;8.00;5.32;;;;;;;;;;6216516;28;20046;-77
2022/03/08 13:46:34;;;;;;;8.05;5.22;;;;;;;;;;6206845;28;20379;-78
2022/03/08 13:49:36;;;;;;;7.15;5.00;;;;;;;;;;6217980;28;20418;-77
2022/03/08 13:52:37;;;;;;;10.55;4.90;;;;;;;;;;6218201;28;20088;-79
2022/03/08 13:55:41;;;;;;;6.80;4.30;;;;;;;;;;6220689;28;20176;-76
2022/03/08 13:58:43;;;;;;;6.95;4.78;;;;;;;;;;6217209;28;20041;-77
2022/03/08 14:02:01;;;;;;;9.02;4.65;;;;;;;;;;6239637;28;20049;-76
2022/03/08 14:05:07;;;;;;;8.23;4.80;;;;;;;;;;6242523;28;20045;-78
2022/03/08 14:08:09;;;;;;;6.55;3.85;;;;;;;;;;6217392;28;20050;-79
2022/03/08 14:11:12;;;;;;;7.70;4.57;;;;;;;;;;6213964;28;20186;-77
2022/03/08 14:14:20;;;;;;;7.40;4.60;;;;;;;;;;6215745;28;20419;-78
2022/03/08 14:17:31;;;;;;;8.75;5.05;;;;;;;;;;6216338;28;20136;-78
2022/03/08 14:20:38;;;;;;;7.30;4.80;;;;;;;;;;6214173;28;20123;-79
2022/03/08 14:23:41;;;;;;;7.43;4.38;;;;;;;;;;6215645;28;20119;-78
2022/03/08 14:27:07;;;;;;;5.63;4.30;;;;;;;;;;6214800;28;20045;-78
2022/03/08 14:30:08;;;;;;;6.05;4.45;;;;;;;;;;6214212;28;20072;-78
2022/03/08 14:33:12;;;;;;;7.30;4.70;;;;;;;;;;6216974;28;20128;-78
2022/03/08 14:36:30;;;;;;;7.95;4.70;;;;;;;;;;6216891;28;20045;-76
2022/03/08 14:39:34;;;;;;;7.93;3.97;;;;;;;;;;6198693;28;20129;-78
2022/03/08 14:42:40;;;;;;;5.53;4.32;;;;;;;;;;6222912;28;20095;-76
2022/03/08 14:45:41;;;;;;;5.30;3.90;;;;;;;;;;6219177;28;20050;-77
2022/03/08 14:49:03;;;;;;;6.30;4.07;;;;;;;;;;6248236;28;20052;-79
2022/03/08 14:52:20;;;;;;;;;;;;;;;;;;6223946;28;20092;-78
2022/03/08 14:55:24;;;;;;;7.03;4.68;;;;;;;;;;6200068;28;19932;-79
2022/03/08 14:58:26;;;;;;;6.85;3.60;;;;;;;;;;6222577;28;20132;-77
2022/03/08 15:01:28;;;;;;;5.80;3.78;;;;;;;;;;6232298;28;20045;-79
2022/03/08 15:04:30;;;;;;;5.53;4.10;;;;;;;;;;6224076;28;20069;-78
2022/03/08 15:07:31;;;;;;;8.20;4.03;;;;;;;;;;6212237;28;20423;-78
2022/03/08 15:10:33;;;;;;;9.13;5.07;;;;;;;;;;6214264;28;20054;-78
2022/03/08 15:13:35;;;;;;;11.88;5.03;;;;;;;;;;6231415;28;20125;-79
2022/03/08 15:16:36;;;;;;;6.85;4.75;;;;;;;;;;6219704;28;20640;-78
2022/03/08 15:19:39;;;;;;;7.18;4.47;;;;;;;;;;6225367;28;20141;-80
2022/03/08 15:22:42;;;;;;;5.95;4.07;;;;;;;;;;6241167;28;20046;-78
2022/03/08 15:25:44;;;;;;;6.13;4.53;;;;;;;;;;6222822;28;20160;-79
2022/03/08 15:28:47;;;;;;;8.95;5.47;;;;;;;;;;6217154;28;20046;-79
2022/03/08 15:31:49;;;;;;;15.20;10.90;;;;;;;;;;6227843;28;20165;-78
2022/03/08 15:34:51;;;;;;;7.28;4.45;;;;;;;;;;6225760;28;20055;-78
2022/03/08 15:37:52;;;;;;;8.82;4.45;;;;;;;;;;6207416;28;20136;-79
2022/03/08 15:40:54;;;;;;;7.82;4.82;;;;;;;;;;6221711;28;20466;-79
2022/03/08 15:43:56;;;;;;;8.95;5.07;;;;;;;;;;6203241;28;20213;-77
2022/03/08 15:46:57;;;;;;;8.90;4.53;;;;;;;;;;6220851;28;20539;-80
2022/03/08 15:49:59;;;;;;;8.18;5.10;;;;;;;;;;6228208;28;20144;-80
2022/03/08 15:53:01;;;;;;;7.03;5.07;;;;;;;;;;6211718;28;20126;-78
2022/03/08 15:56:05;;;;;;;6.03;4.13;;;;;;;;;;6218905;28;20050;-79
2022/03/08 15:59:10;;;;;;;6.20;4.65;;;;;;;;;;6233440;28;20200;-78
2022/03/08 16:02:13;;;;;;;8.05;4.68;;;;;;;;;;6209249;28;20129;-77
2022/03/08 16:05:15;;;;;;;10.77;6.65;;;;;;;;;;6218933;28;20472;-79
2022/03/08 16:08:16;;;;;;;6.10;4.30;;;;;;;;;;6216580;28;20046;-79
2022/03/08 16:11:18;;;;;;;7.60;5.18;;;;;;;;;;6213223;28;20049;-78
2022/03/08 16:14:20;;;;;;;6.15;4.15;;;;;;;;;;6210916;28;20111;-77
2022/03/08 16:17:21;;;;;;;9.68;6.03;;;;;;;;;;6211005;28;20060;-79
2022/03/08 16:20:39;;;;;;;8.93;5.60;;;;;;;;;;6211956;28;20634;-78
2022/03/08 16:23:41;;;;;;;9.48;7.20;;;;;;;;;;6211880;28;20172;-79
2022/03/08 16:26:44;;;;;;;9.57;5.80;;;;;;;;;;6214693;28;20049;-78
2022/03/08 16:29:46;;;;;;;12.55;5.75;;;;;;;;;;6235826;28;20161;-77
2022/03/08 16:32:48;;;;;;;6.53;3.70;;;;;;;;;;6235491;28;20045;-78
2022/03/08 16:35:50;;;;;;;23.05;12.25;;;;;;;;;;6229397;28;20207;-78
2022/03/08 16:38:57;;;;;;;13.25;7.60;;;;;;;;;;6239412;28;20609;-80
2022/03/08 16:41:58;;;;;;;17.58;10.15;;;;;;;;;;6229736;28;20059;-78
2022/03/08 16:45:00;;;;;;;22.52;11.73;;;;;;;;;;6239857;28;20124;-78
2022/03/08 16:48:02;;;;;;;8.18;5.60;;;;;;;;;;6217765;28;20128;-78
2022/03/08 16:51:03;;;;;;;12.05;6.72;;;;;;;;;;6227604;28;20756;-78
2022/03/08 16:54:05;;;;;;;15.38;8.13;;;;;;;;;;6217503;28;21131;-79
2022/03/08 16:57:07;;;;;;;18.00;9.93;;;;;;;;;;6210967;28;20085;-79
2022/03/08 17:00:11;;;;;;;12.07;6.30;;;;;;;;;;6202913;28;20053;-78
2022/03/08 17:03:13;;;;;;;16.40;8.00;;;;;;;;;;6209998;28;20075;-79
2022/03/08 17:06:16;;;;;;;18.65;8.55;;;;;;;;;;6215676;28;20050;-77
2022/03/08 17:09:18;;;;;;;12.60;7.18;;;;;;;;;;6225285;28;20049;-78
2022/03/08 17:12:19;;;;;;;49.33;20.73;;;;;;;;;;6226519;28;20065;-79
2022/03/08 17:15:21;;;;;;;65.32;26.83;;;;;;;;;;6206292;28;20046;-79
2022/03/08 17:18:23;;;;;;;26.23;14.02;;;;;;;;;;6233995;28;20128;-78
2022/03/08 17:21:25;;;;;;;10.80;6.32;;;;;;;;;;6227132;28;20132;-78
2022/03/08 17:24:27;;;;;;;7.95;4.70;;;;;;;;;;6227265;28;20046;-79
2022/03/08 17:27:29;;;;;;;6.50;4.63;;;;;;;;;;6224335;28;20261;-78
2022/03/08 17:30:31;;;;;;;7.87;5.20;;;;;;;;;;6222019;28;20048;-79
2022/03/08 17:33:33;;;;;;;7.78;5.25;;;;;;;;;;6227296;28;20131;-79
2022/03/08 17:36:35;;;;;;;10.52;7.13;;;;;;;;;;6221736;28;20111;-78
2022/03/08 17:39:36;;;;;;;18.88;14.40;;;;;;;;;;6220697;28;20356;-79
2022/03/08 17:42:40;;;;;;;18.00;13.60;;;;;;;;;;6243826;28;20048;-77
2022/03/08 17:45:41;;;;;;;17.67;10.43;;;;;;;;;;6217772;28;20061;-79
2022/03/08 17:48:43;;;;;;;17.48;11.25;;;;;;;;;;6195397;28;20135;-78
2022/03/08 17:51:52;;;;;;;14.52;10.48;;;;;;;;;;6227443;28;20045;-78
2022/03/08 17:54:53;;;;;;;17.92;10.13;;;;;;;;;;6214230;28;20053;-78
2022/03/08 17:57:55;;;;;;;33.25;15.57;;;;;;;;;;6229423;28;20081;-77
2022/03/08 18:01:01;;;;;;;20.17;10.43;;;;;;;;;;6215016;28;20042;-77
2022/03/08 18:04:04;;;;;;;12.95;7.30;;;;;;;;;;6232857;28;20049;-77
2022/03/08 18:07:06;;;;;;;16.27;7.85;;;;;;;;;;6206881;28;20046;-77
2022/03/08 18:10:08;;;;;;;19.17;9.30;;;;;;;;;;6206884;28;20066;-76
2022/03/08 18:13:10;;;;;;;22.27;10.45;;;;;;;;;;6209348;28;20049;-76
2022/03/08 18:16:11;;;;;;;19.17;11.00;;;;;;;;;;6208606;28;20064;-78